»·PEaware :: DAL2460 KSLC-KLAS

DAL2460 :: KSLC-KLAS

FLIGHT INFORMATION

Flight Status: Arrived
Operator:
Delta Air Lines
More flights by this operator :: More flights under this callsign
Pilot: Max W. (2591)
Aircraft: BOEING 757-200
(B752)
More flights by this aircraft type
Origin: KSLC Salt Lake City Intl
United States
Destination: KLAS McCarran Intl
United States
More flights between these airports :: More routes between these airports
Route: +ZIONZ1 EHK KSINO SITEE4
File this flight plan on PilotEdge
Remarks:
Altitude:
(Current/Filed)
32,000ft
Speed:
(Current/Filed)
450kts
Departed: 05-Oct-19 10:25 AM
Arrived: 05-Oct-19 11:20 AM
Distance/Time
Traveled:
319nm/0:55
Distance/Time
To Go:
Arrived

Flight Plot

Page will automatically refresh every two minutes.

Flight plan parsing failed; only flown route is shown


Map Options




Map Legend


Flown Route
Filed Route
Departure Airport
Arrival Airport
Navaid (VOR, NDB)
Fix

Horizontal Profiles

Position Reports

Time Latitude Longitude Heading Altitude Ground
Speed
05-Oct-19 09:47 40.788090 -111.980903 284 4238ft 0kts
05-Oct-19 09:48 40.788090 -111.980903 284 4238ft 0kts
05-Oct-19 09:49 40.788090 -111.980903 284 4238ft 0kts
05-Oct-19 09:50 40.788090 -111.980903 284 4238ft 0kts
05-Oct-19 09:51 40.788090 -111.980903 284 4238ft 0kts
05-Oct-19 09:52 40.788090 -111.980903 284 4238ft 0kts
05-Oct-19 09:53 40.788090 -111.980903 284 4238ft 0kts
05-Oct-19 09:54 40.788090 -111.980903 284 4238ft 0kts
05-Oct-19 09:55 40.788090 -111.980903 284 4238ft 0kts
05-Oct-19 09:56 40.788090 -111.980903 284 4238ft 0kts
05-Oct-19 09:57 40.788090 -111.980903 284 4238ft 0kts
05-Oct-19 09:58 40.788090 -111.980903 284 4238ft 0kts
05-Oct-19 09:59 40.788090 -111.980903 284 4238ft 0kts
05-Oct-19 10:00 40.788090 -111.980903 284 4238ft 0kts
05-Oct-19 10:01 40.788090 -111.980903 284 4238ft 0kts
05-Oct-19 10:02 40.788090 -111.980903 284 4238ft 0kts
05-Oct-19 10:03 40.788090 -111.980903 284 4238ft 0kts
05-Oct-19 10:04 40.788090 -111.980903 284 4238ft 0kts
05-Oct-19 10:05 40.788090 -111.980903 284 4238ft 0kts
05-Oct-19 10:06 40.788090 -111.980903 284 4238ft 0kts
05-Oct-19 10:07 40.788090 -111.980903 284 4238ft 0kts
05-Oct-19 10:08 40.788090 -111.980903 284 4238ft 0kts
05-Oct-19 10:09 40.788090 -111.980903 284 4238ft 0kts
05-Oct-19 10:10 40.788090 -111.980903 284 4238ft 0kts
05-Oct-19 10:11 40.788090 -111.980903 284 4238ft 0kts
05-Oct-19 10:12 40.788090 -111.980903 284 4238ft 0kts
05-Oct-19 10:13 40.788090 -111.980903 284 4238ft 0kts
05-Oct-19 10:14 40.788036 -111.980615 283 4238ft 2kts
05-Oct-19 10:15 40.787673 -111.980087 6 4238ft 1kts
05-Oct-19 10:16 40.787583 -111.980113 13 4238ft 0kts
05-Oct-19 10:17 40.788237 -111.979930 7 4238ft 11kts
05-Oct-19 10:18 40.789594 -111.978856 72 4238ft 14kts
05-Oct-19 10:19 40.791566 -111.977230 355 4238ft 12kts
05-Oct-19 10:20 40.797089 -111.977902 354 4238ft 20kts
05-Oct-19 10:21 40.802005 -111.978477 359 4238ft 15kts
05-Oct-19 10:22 40.806689 -111.978560 359 4238ft 22kts
05-Oct-19 10:23 40.806532 -111.976838 172 4238ft 0kts
05-Oct-19 10:24 40.803084 -111.976423 175 4238ft 73kts
05-Oct-19 10:25 40.760582 -111.970428 172 5403ft 184kts
05-Oct-19 10:26 40.701079 -111.958255 171 7059ft 247kts
05-Oct-19 10:27 40.630836 -111.956746 180 9655ft 259kts
05-Oct-19 10:28 40.552259 -111.954713 179 11062ft 322kts
05-Oct-19 10:29 40.453037 -111.951513 178 12515ft 373kts
05-Oct-19 10:30 40.346917 -111.944096 179 15297ft 393kts
05-Oct-19 10:31 40.235314 -111.944343 189 17006ft 409kts
05-Oct-19 10:32 40.121075 -111.961866 190 18672ft 420kts
05-Oct-19 10:33 40.003606 -111.979038 190 20314ft 431kts
05-Oct-19 10:34 39.887730 -111.995970 191 21854ft 441kts
05-Oct-19 10:35 39.764331 -112.013941 191 23303ft 453kts
05-Oct-19 10:36 39.637635 -112.032324 192 24655ft 464kts
05-Oct-19 10:37 39.508441 -112.050999 192 25914ft 474kts
05-Oct-19 10:38 39.376198 -112.069889 192 27107ft 483kts
05-Oct-19 10:39 39.242903 -112.088753 193 29404ft 483kts
05-Oct-19 10:40 39.113844 -112.122214 214 31654ft 459kts
05-Oct-19 10:41 39.002303 -112.200811 217 32049ft 465kts
05-Oct-19 10:42 38.892611 -112.280295 216 32046ft 479kts
05-Oct-19 10:43 38.776122 -112.364561 215 32040ft 483kts
05-Oct-19 10:44 38.662002 -112.446850 216 32036ft 462kts
05-Oct-19 10:45 38.550293 -112.527198 215 32017ft 451kts
05-Oct-19 10:47 38.441109 -112.605446 215 32021ft 451kts
05-Oct-19 10:48 38.335945 -112.680540 214 32031ft 451kts
05-Oct-19 10:49 38.226518 -112.758404 214 32030ft 451kts
05-Oct-19 10:50 38.117272 -112.835876 214 32030ft 450kts
05-Oct-19 10:51 38.008042 -112.913072 214 32026ft 450kts
05-Oct-19 10:52 37.900684 -112.988673 213 32020ft 438kts
05-Oct-19 10:53 37.799304 -113.059846 213 32017ft 438kts
05-Oct-19 10:54 37.698225 -113.143952 218 32016ft 434kts
05-Oct-19 10:55 37.598505 -113.229218 218 32016ft 435kts
05-Oct-19 10:56 37.498136 -113.314448 218 32012ft 435kts
05-Oct-19 10:57 37.397874 -113.399272 218 31975ft 435kts
05-Oct-19 10:58 37.297746 -113.483700 218 31944ft 435kts
05-Oct-19 10:59 37.196747 -113.568606 218 31240ft 440kts
05-Oct-19 11:00 37.098984 -113.650511 217 29475ft 440kts
05-Oct-19 11:01 36.997841 -113.734982 215 27482ft 437kts
05-Oct-19 11:02 36.899934 -113.816446 214 25196ft 426kts
05-Oct-19 11:03 36.806030 -113.894363 214 23034ft 415kts
05-Oct-19 11:04 36.711651 -113.972444 214 21030ft 400kts
05-Oct-19 11:05 36.620559 -114.047589 214 19028ft 387kts
05-Oct-19 11:06 36.548167 -114.138907 237 16477ft 369kts
05-Oct-19 11:06 36.502724 -114.227381 237 14500ft 361kts
05-Oct-19 11:08 36.440942 -114.347848 237 12078ft 348kts
05-Oct-19 11:08 36.400481 -114.426542 237 12013ft 299kts
05-Oct-19 11:09 36.356681 -114.511658 238 11395ft 290kts
05-Oct-19 11:10 36.313601 -114.595244 238 10421ft 286kts
05-Oct-19 11:11 36.252521 -114.649478 204 9565ft 276kts
05-Oct-19 11:12 36.200701 -114.712515 231 8189ft 278kts
05-Oct-19 11:13 36.152371 -114.784404 231 6270ft 266kts
05-Oct-19 11:14 36.105221 -114.855360 237 5019ft 260kts
05-Oct-19 11:15 36.077764 -114.934499 260 5024ft 235kts
05-Oct-19 11:16 36.073775 -115.009630 271 4024ft 194kts
05-Oct-19 11:17 36.073686 -115.067116 271 3088ft 158kts
05-Oct-19 11:18 36.073627 -115.121437 272 2230ft 151kts
05-Oct-19 11:19 36.074246 -115.139596 58 2123ft 12kts
05-Oct-19 11:20 36.078252 -115.138605 277 2123ft 12kts
05-Oct-19 11:21 36.079842 -115.139580 356 2123ft 0kts

Navigation Log

Ident Type
Flight plan parsing failed, navigation log unavailable